createdAt,value
2022-11-11T00:03:00.261Z,100.00
2022-11-11T00:06:04.230Z,100.00
2022-11-11T00:09:06.554Z,100.00
2022-11-11T00:12:09.162Z,100.00
2022-11-11T00:15:11.489Z,100.00
2022-11-11T00:18:32.328Z,100.00
2022-11-11T00:21:37.150Z,100.00
2022-11-11T00:24:57.912Z,100.00
2022-11-11T00:28:00.092Z,100.00
2022-11-11T00:31:09.974Z,100.00
2022-11-11T00:34:12.152Z,100.00
2022-11-11T00:37:14.349Z,100.00
2022-11-11T00:40:17.140Z,100.00
2022-11-11T00:43:19.219Z,100.00
2022-11-11T00:46:40.260Z,100.00
2022-11-11T00:50:00.858Z,100.00
2022-11-11T00:53:05.322Z,100.00
2022-11-11T00:56:07.579Z,100.00
2022-11-11T00:59:09.809Z,100.00
2022-11-11T01:02:12.148Z,100.00
2022-11-11T01:05:14.488Z,100.00
2022-11-11T01:08:16.618Z,100.00
2022-11-11T01:11:21.832Z,100.00
2022-11-11T01:14:23.985Z,100.00
2022-11-11T01:17:26.165Z,100.00
2022-11-11T01:20:28.408Z,100.00
2022-11-11T01:23:32.166Z,100.00
2022-11-11T01:26:34.384Z,100.00
2022-11-11T01:29:36.499Z,100.00
2022-11-11T01:32:38.620Z,100.00
2022-11-11T01:35:42.450Z,100.00
2022-11-11T01:38:48.509Z,100.00
2022-11-11T01:41:50.681Z,100.00
2022-11-11T01:44:52.787Z,100.00
2022-11-11T01:48:33.800Z,100.00
2022-11-11T01:51:59.278Z,100.00
2022-11-11T01:55:13.549Z,100.00
2022-11-11T01:58:18.335Z,100.00
2022-11-11T02:01:20.548Z,100.00
2022-11-11T02:04:41.389Z,100.00
2022-11-11T02:07:43.755Z,100.00
2022-11-11T02:10:47.240Z,100.00
2022-11-11T02:14:07.765Z,100.00
2022-11-11T02:17:14.091Z,100.00
2022-11-11T02:20:21.243Z,100.00
2022-11-11T02:23:42.417Z,100.00
2022-11-11T02:26:45.415Z,100.00
2022-11-11T02:29:50.917Z,100.00
2022-11-11T02:32:54.599Z,100.00
2022-11-11T02:35:59.512Z,100.00
2022-11-11T02:39:04.989Z,100.00
2022-11-11T02:42:10.489Z,100.00
2022-11-11T02:45:12.972Z,100.00
2022-11-11T02:48:15.101Z,100.00
2022-11-11T02:51:17.564Z,100.00
2022-11-11T02:54:19.669Z,100.00
2022-11-11T02:57:22.699Z,100.00
2022-11-11T03:00:25.714Z,100.00
2022-11-11T03:03:28.261Z,100.00
2022-11-11T03:06:30.896Z,100.00
2022-11-11T03:09:33.077Z,100.00
2022-11-11T03:12:35.217Z,100.00
2022-11-11T03:15:37.604Z,100.00
2022-11-11T03:23:02.049Z,100.00
2022-11-11T03:26:04.093Z,100.00
2022-11-11T03:29:06.527Z,100.00
2022-11-11T03:32:09.748Z,100.00
2022-11-11T03:35:11.764Z,100.00
2022-11-11T03:38:23.551Z,100.00
2022-11-11T03:41:25.594Z,100.00
2022-11-11T03:44:28.665Z,100.00
2022-11-11T03:47:30.704Z,100.00
2022-11-11T03:50:34.765Z,100.00
2022-11-11T03:53:36.747Z,100.00
2022-11-11T03:56:38.902Z,100.00
2022-11-11T03:59:41.137Z,100.00
2022-11-11T04:03:01.634Z,100.00
2022-11-11T04:06:23.170Z,100.00
2022-11-11T04:09:43.841Z,100.00
2022-11-11T04:13:04.535Z,100.00
2022-11-11T04:16:06.765Z,100.00
2022-11-11T04:19:27.730Z,100.00
2022-11-11T04:22:30.009Z,100.00
2022-11-11T04:25:50.268Z,100.00
2022-11-11T04:29:21.661Z,100.00
2022-11-11T04:32:35.832Z,100.00
2022-11-11T04:35:37.845Z,100.00
2022-11-11T04:38:58.125Z,100.00
2022-11-11T04:42:08.853Z,100.00
2022-11-11T04:45:28.376Z,100.00
2022-11-11T04:48:30.332Z,100.00
2022-11-11T04:51:52.281Z,100.00
2022-11-11T04:55:21.476Z,100.00
2022-11-11T04:58:26.043Z,100.00
2022-11-11T05:01:46.542Z,100.00
2022-11-11T05:04:48.508Z,100.00
2022-11-11T05:08:09.674Z,100.00
2022-11-11T05:11:11.792Z,100.00
2022-11-11T05:14:32.479Z,100.00
2022-11-11T05:17:53.211Z,100.00
2022-11-11T05:21:13.912Z,100.00
2022-11-11T05:24:34.836Z,100.00
2022-11-11T05:27:37.044Z,100.00
2022-11-11T05:30:41.780Z,100.00
2022-11-11T05:33:43.772Z,100.00
2022-11-11T05:36:45.790Z,100.00
2022-11-11T05:39:48.090Z,100.00
2022-11-11T05:42:54.251Z,100.00
2022-11-11T05:45:59.653Z,100.00
2022-11-11T05:49:16.629Z,100.00
2022-11-11T05:52:20.411Z,100.00
2022-11-11T05:55:22.426Z,100.00
2022-11-11T05:58:24.498Z,100.00
2022-11-11T06:01:26.778Z,100.00
2022-11-11T06:04:29.180Z,100.00
2022-11-11T06:07:31.741Z,100.00
2022-11-11T06:10:34.066Z,100.00
2022-11-11T06:13:36.246Z,100.00
2022-11-11T06:16:38.334Z,100.00
2022-11-11T06:19:40.297Z,100.00
2022-11-11T06:22:57.442Z,100.00
2022-11-11T06:26:15.339Z,100.00
2022-11-11T06:29:17.341Z,100.00
2022-11-11T06:32:19.290Z,100.00
2022-11-11T06:35:21.420Z,100.00
2022-11-11T06:38:23.487Z,100.00
2022-11-11T06:41:30.974Z,100.00
2022-11-11T06:44:32.945Z,100.00
2022-11-11T06:47:44.576Z,100.00
2022-11-11T06:55:02.241Z,100.00
2022-11-11T06:58:12.435Z,100.00
2022-11-11T07:01:14.994Z,100.00
2022-11-11T07:04:17.272Z,100.00
2022-11-11T07:07:19.413Z,100.00
2022-11-11T07:10:21.977Z,100.00
2022-11-11T07:13:24.353Z,100.00
2022-11-11T07:16:28.574Z,100.00
2022-11-11T07:19:31.198Z,100.00
2022-11-11T07:22:38.205Z,100.00
2022-11-11T07:25:40.410Z,100.00
2022-11-11T07:28:42.469Z,100.00
2022-11-11T07:31:44.915Z,100.00
2022-11-11T07:34:47.100Z,100.00
2022-11-11T07:37:49.463Z,100.00
2022-11-11T07:40:51.834Z,100.00
2022-11-11T07:43:53.825Z,100.00
2022-11-11T07:46:55.914Z,100.00
2022-11-11T07:50:01.769Z,100.00
2022-11-11T07:53:06.724Z,100.00
2022-11-11T07:56:08.955Z,100.00
2022-11-11T07:59:11.037Z,99.31
2022-11-11T08:02:13.970Z,98.40
2022-11-11T08:05:16.747Z,98.40
2022-11-11T08:08:20.957Z,98.39
2022-11-11T08:11:43.432Z,98.34
2022-11-11T08:14:45.503Z,97.29
2022-11-11T08:17:47.584Z,97.29
2022-11-11T08:20:54.672Z,96.68
2022-11-11T08:25:01.591Z,96.09
2022-11-11T08:27:31.342Z,94.78
2022-11-11T08:30:33.671Z,93.75
2022-11-11T08:33:35.861Z,94.28
2022-11-11T08:36:38.208Z,93.92
2022-11-11T08:39:40.218Z,93.41
2022-11-11T08:42:42.346Z,93.94
2022-11-11T08:45:44.775Z,93.19
2022-11-11T08:48:47.920Z,91.99
2022-11-11T08:51:50.104Z,91.60
2022-11-11T08:54:52.674Z,90.06
2022-11-11T08:57:59.740Z,91.46
2022-11-11T09:01:04.481Z,90.46
2022-11-11T09:04:37.740Z,90.08
2022-11-11T09:07:28.989Z,89.96
2022-11-11T09:10:31.363Z,90.42
2022-11-11T09:13:33.611Z,90.41
2022-11-11T09:16:35.735Z,90.72
2022-11-11T09:19:37.976Z,90.60
2022-11-11T09:22:44.317Z,90.13
2022-11-11T09:25:46.633Z,89.50
2022-11-11T09:28:48.942Z,87.95
2022-11-11T09:31:51.277Z,87.97
2022-11-11T09:34:55.564Z,89.01
2022-11-11T09:38:00.003Z,88.54
2022-11-11T09:41:35.830Z,88.06
2022-11-11T09:45:05.733Z,88.16
2022-11-11T09:48:39.047Z,87.42
2022-11-11T09:52:01.053Z,87.02
2022-11-11T09:55:30.681Z,85.20
2022-11-11T09:58:38.687Z,84.46
2022-11-11T10:01:45.335Z,83.01
2022-11-11T10:05:21.635Z,78.46
2022-11-11T10:08:23.995Z,77.65
2022-11-11T10:11:39.938Z,76.33
2022-11-11T10:14:49.568Z,73.96
2022-11-11T10:17:51.654Z,69.81
2022-11-11T10:21:05.822Z,67.37
2022-11-11T10:24:17.361Z,68.04
2022-11-11T10:27:22.294Z,67.59
2022-11-11T10:30:31.660Z,69.28
2022-11-11T10:33:46.497Z,70.37
2022-11-11T10:36:53.773Z,69.99
2022-11-11T10:40:12.760Z,69.37
2022-11-11T10:43:23.615Z,68.42
2022-11-11T10:46:40.442Z,71.02
2022-11-11T10:49:53.686Z,70.52
2022-11-11T10:53:54.542Z,70.88
2022-11-11T10:57:05.846Z,70.80
2022-11-11T11:00:11.825Z,72.74
2022-11-11T11:03:24.351Z,71.06
2022-11-11T11:06:32.106Z,70.53
2022-11-11T11:09:44.232Z,69.04
2022-11-11T11:13:08.002Z,68.70
2022-11-11T11:16:18.084Z,65.79
2022-11-11T11:19:25.837Z,67.89
2022-11-11T11:22:53.044Z,66.58
2022-11-11T11:25:57.624Z,67.10
2022-11-11T11:29:02.241Z,66.27
2022-11-11T11:32:19.670Z,68.72
2022-11-11T11:35:44.272Z,69.83
2022-11-11T11:38:51.068Z,70.57
2022-11-11T11:41:54.399Z,71.45
2022-11-11T11:44:56.828Z,71.83
2022-11-11T11:48:30.893Z,71.79
2022-11-11T11:55:18.378Z,71.89
2022-11-11T11:58:43.877Z,71.42
2022-11-11T12:01:55.935Z,72.71
2022-11-11T12:05:10.790Z,73.48
2022-11-11T12:08:19.111Z,74.33
2022-11-11T12:11:40.172Z,74.65
2022-11-11T12:14:52.708Z,74.40
2022-11-11T12:18:16.891Z,74.13
2022-11-11T12:21:24.283Z,74.42
2022-11-11T12:24:51.368Z,74.35
2022-11-11T12:28:04.783Z,75.13
2022-11-11T12:31:32.743Z,74.96
2022-11-11T12:34:53.755Z,76.08
2022-11-11T12:38:26.803Z,75.45
2022-11-11T12:42:07.918Z,75.42
2022-11-11T12:45:22.128Z,76.32
2022-11-11T12:48:43.107Z,75.70
2022-11-11T12:52:16.230Z,75.58
2022-11-11T12:55:36.457Z,75.37
2022-11-11T12:58:44.289Z,75.02
2022-11-11T13:02:16.547Z,75.07
2022-11-11T13:05:22.565Z,75.28
2022-11-11T13:09:06.160Z,75.51
2022-11-11T13:12:21.450Z,74.60
2022-11-11T13:15:25.799Z,75.23
2022-11-11T13:18:51.604Z,75.15
2022-11-11T13:21:59.429Z,75.59
2022-11-11T13:25:07.785Z,75.71
2022-11-11T13:28:17.795Z,75.74
2022-11-11T13:31:34.452Z,75.06
2022-11-11T13:34:37.448Z,75.82
2022-11-11T13:37:43.641Z,76.48
2022-11-11T13:40:46.865Z,76.83
2022-11-11T13:43:52.211Z,77.12
2022-11-11T13:47:03.457Z,77.58
2022-11-11T13:50:27.769Z,77.91
2022-11-11T13:53:34.283Z,78.37
2022-11-11T13:56:41.837Z,78.58
2022-11-11T14:00:10.063Z,78.54
2022-11-11T14:03:18.385Z,78.39
2022-11-11T14:06:20.477Z,77.83
2022-11-11T14:09:54.401Z,77.33
2022-11-11T14:13:22.015Z,76.12
2022-11-11T14:16:34.498Z,75.88
2022-11-11T14:19:36.743Z,75.11
2022-11-11T14:22:38.944Z,74.15
2022-11-11T14:25:41.173Z,73.68
2022-11-11T14:28:49.294Z,73.76
2022-11-11T14:32:12.839Z,73.32
2022-11-11T14:35:54.024Z,74.11
2022-11-11T14:39:24.065Z,74.80
2022-11-11T14:42:38.013Z,75.18
2022-11-11T14:45:49.466Z,75.83
2022-11-11T14:49:00.250Z,76.20
2022-11-11T14:52:03.722Z,76.59
2022-11-11T14:55:20.815Z,76.67
2022-11-11T14:58:27.247Z,76.88
2022-11-11T15:01:31.391Z,76.93
2022-11-11T15:04:38.784Z,78.89
2022-11-11T15:07:40.866Z,78.35
2022-11-11T15:11:03.681Z,78.16
2022-11-11T15:14:37.973Z,80.56
2022-11-11T15:18:25.612Z,82.15
2022-11-11T15:21:27.709Z,82.89
2022-11-11T15:25:15.176Z,83.73
2022-11-11T15:28:35.570Z,83.80
2022-11-11T15:32:28.429Z,84.59
2022-11-11T15:35:42.104Z,85.78
2022-11-11T15:38:44.837Z,86.22
2022-11-11T15:41:50.505Z,86.52
2022-11-11T15:44:52.850Z,86.66
2022-11-11T15:47:55.093Z,86.81
2022-11-11T15:50:57.410Z,87.09
2022-11-11T15:54:15.808Z,87.24
2022-11-11T15:57:35.234Z,86.60
2022-11-11T16:00:38.272Z,87.76
2022-11-11T16:03:42.474Z,88.38
2022-11-11T16:06:45.347Z,88.75
2022-11-11T16:09:47.895Z,89.26
2022-11-11T16:13:18.585Z,89.34
2022-11-11T16:16:31.185Z,89.87
2022-11-11T16:19:37.442Z,90.68
2022-11-11T16:22:40.755Z,90.92
2022-11-11T16:25:43.301Z,91.01
2022-11-11T16:28:48.595Z,91.10
2022-11-11T16:31:50.913Z,91.35
2022-11-11T16:34:54.459Z,92.00
2022-11-11T16:37:56.973Z,92.35
2022-11-11T16:40:59.665Z,92.63
2022-11-11T16:44:01.921Z,93.01
2022-11-11T16:47:27.799Z,93.54
2022-11-11T16:50:30.408Z,93.88
2022-11-11T16:53:40.883Z,94.39
2022-11-11T16:56:47.163Z,94.51
2022-11-11T16:59:55.395Z,95.00
2022-11-11T17:03:22.957Z,95.29
2022-11-11T17:06:52.262Z,95.39
2022-11-11T17:09:55.887Z,95.60
2022-11-11T17:12:58.003Z,96.49
2022-11-11T17:16:08.102Z,97.02
2022-11-11T17:19:10.556Z,97.03
2022-11-11T17:22:12.920Z,96.52
2022-11-11T17:25:15.379Z,96.66
2022-11-11T17:28:18.187Z,96.72
2022-11-11T17:31:20.503Z,96.23
2022-11-11T17:34:22.930Z,96.18
2022-11-11T17:37:25.102Z,96.20
2022-11-11T17:40:27.905Z,96.28
2022-11-11T17:43:31.660Z,96.41
2022-11-11T17:46:34.438Z,96.57
2022-11-11T17:49:55.726Z,96.84
2022-11-11T17:52:58.635Z,97.20
2022-11-11T17:56:02.101Z,97.97
2022-11-11T17:59:04.686Z,98.00
2022-11-11T18:02:07.644Z,97.92
2022-11-11T18:05:10.530Z,97.78
2022-11-11T18:08:12.891Z,97.60
2022-11-11T18:11:15.531Z,98.24
2022-11-11T18:14:18.006Z,98.47
2022-11-11T18:17:20.246Z,99.14
2022-11-11T18:20:22.783Z,98.86
2022-11-11T18:23:25.522Z,98.65
2022-11-11T18:26:28.051Z,98.61
2022-11-11T18:29:31.331Z,98.76
2022-11-11T18:32:34.013Z,99.23
2022-11-11T18:35:36.708Z,99.65
2022-11-11T18:38:39.652Z,99.93
2022-11-11T18:41:42.349Z,99.92
2022-11-11T18:44:44.771Z,100.00
2022-11-11T18:47:50.815Z,100.00
2022-11-11T18:50:55.271Z,100.00
2022-11-11T18:53:58.540Z,100.00
2022-11-11T18:57:03.466Z,100.00
2022-11-11T19:00:06.519Z,100.00
2022-11-11T19:03:10.232Z,100.00
2022-11-11T19:06:12.858Z,100.00
2022-11-11T19:09:15.708Z,100.00
2022-11-11T19:12:18.482Z,100.00
2022-11-11T19:15:20.963Z,100.00
2022-11-11T19:18:24.082Z,100.00
2022-11-11T19:21:29.798Z,100.00
2022-11-11T19:24:34.027Z,100.00
2022-11-11T19:27:36.337Z,100.00
2022-11-11T19:30:38.897Z,100.00
2022-11-11T19:33:42.458Z,100.00
2022-11-11T19:36:44.864Z,100.00
2022-11-11T19:39:47.451Z,100.00
2022-11-11T19:42:50.662Z,100.00
2022-11-11T19:45:53.200Z,100.00
2022-11-11T19:48:58.548Z,100.00
2022-11-11T19:52:01.262Z,100.00
2022-11-11T19:55:04.017Z,100.00
2022-11-11T19:58:06.711Z,100.00
2022-11-11T20:01:11.654Z,100.00
2022-11-11T20:04:14.161Z,100.00
2022-11-11T20:07:17.252Z,100.00
2022-11-11T20:10:20.508Z,100.00
2022-11-11T20:13:23.193Z,100.00
2022-11-11T20:16:26.305Z,100.00
2022-11-11T20:19:28.562Z,100.00
2022-11-11T20:22:32.090Z,100.00
2022-11-11T20:25:38.540Z,100.00
2022-11-11T20:28:42.028Z,100.00
2022-11-11T20:31:44.394Z,100.00
2022-11-11T20:34:46.669Z,100.00
2022-11-11T20:37:49.184Z,100.00
2022-11-11T20:41:04.899Z,100.00
2022-11-11T20:44:07.832Z,100.00
2022-11-11T20:47:10.224Z,100.00
2022-11-11T20:50:12.947Z,100.00
2022-11-11T20:53:15.699Z,100.00
2022-11-11T20:56:22.413Z,100.00
2022-11-11T20:59:27.074Z,100.00
2022-11-11T21:02:29.689Z,100.00
2022-11-11T21:05:31.990Z,100.00
2022-11-11T21:08:37.092Z,100.00
2022-11-11T21:11:40.251Z,100.00
2022-11-11T21:14:42.519Z,100.00
2022-11-11T21:17:44.819Z,100.00
2022-11-11T21:20:47.608Z,100.00
2022-11-11T21:23:54.785Z,100.00
2022-11-11T21:26:58.306Z,100.00
2022-11-11T21:30:00.584Z,100.00
2022-11-11T21:33:07.809Z,100.00
2022-11-11T21:36:13.363Z,100.00
2022-11-11T21:39:15.851Z,100.00
2022-11-11T21:42:18.507Z,100.00
2022-11-11T21:45:20.772Z,100.00
2022-11-11T21:48:27.030Z,100.00
2022-11-11T21:51:31.777Z,100.00
2022-11-11T21:54:33.995Z,100.00
2022-11-11T21:57:36.524Z,100.00
2022-11-11T22:00:38.768Z,100.00
2022-11-11T22:03:42.784Z,100.00
2022-11-11T22:06:45.083Z,100.00
2022-11-11T22:09:47.274Z,100.00
2022-11-11T22:12:49.427Z,100.00
2022-11-11T22:15:59.169Z,100.00
2022-11-11T22:19:07.018Z,100.00
2022-11-11T22:22:09.359Z,100.00
2022-11-11T22:25:11.475Z,100.00
2022-11-11T22:28:13.646Z,100.00
2022-11-11T22:31:23.978Z,100.00
2022-11-11T22:34:26.188Z,100.00
2022-11-11T22:37:28.446Z,100.00
2022-11-11T22:40:30.741Z,100.00
2022-11-11T22:43:58.553Z,100.00
2022-11-11T22:47:00.084Z,100.00
2022-11-11T22:50:02.330Z,100.00
2022-11-11T22:53:04.509Z,100.00
2022-11-11T22:56:09.329Z,100.00
2022-11-11T22:59:11.581Z,100.00
2022-11-11T23:02:14.074Z,100.00
2022-11-11T23:05:16.754Z,100.00
2022-11-11T23:08:18.998Z,100.00
2022-11-11T23:11:23.921Z,100.00
2022-11-11T23:14:26.071Z,100.00
2022-11-11T23:17:28.213Z,100.00
2022-11-11T23:20:30.383Z,100.00
2022-11-11T23:23:33.446Z,100.00
2022-11-11T23:26:35.688Z,100.00
2022-11-11T23:29:37.930Z,100.00
2022-11-11T23:32:40.245Z,100.00
2022-11-11T23:35:42.505Z,100.00
2022-11-11T23:38:44.918Z,100.00
2022-11-11T23:41:47.543Z,100.00
2022-11-11T23:44:49.727Z,100.00
2022-11-11T23:47:51.961Z,100.00
2022-11-11T23:50:54.692Z,100.00
2022-11-11T23:53:56.999Z,100.00
2022-11-11T23:56:59.240Z,100.00
